sensor_id;sensor_type;location;lat;lon;timestamp;P1;durP1;ratioP1;P2;durP2;ratioP2
41817;SDS011;27493;51.730;5.294;2022-07-29T00:02:06;1.30;;;0.90;;
41817;SDS011;27493;51.730;5.294;2022-07-29T00:04:33;2.50;;;1.20;;
41817;SDS011;27493;51.730;5.294;2022-07-29T00:06:58;1.77;;;1.20;;
41817;SDS011;27493;51.730;5.294;2022-07-29T00:09:23;1.40;;;1.23;;
41817;SDS011;27493;51.730;5.294;2022-07-29T00:11:49;1.10;;;0.97;;
41817;SDS011;27493;51.730;5.294;2022-07-29T00:14:14;1.43;;;1.17;;
41817;SDS011;27493;51.730;5.294;2022-07-29T00:16:39;1.13;;;1.03;;
41817;SDS011;27493;51.730;5.294;2022-07-29T00:19:04;1.33;;;1.10;;
41817;SDS011;27493;51.730;5.294;2022-07-29T00:21:30;2.30;;;1.00;;
41817;SDS011;27493;51.730;5.294;2022-07-29T00:23:55;2.50;;;1.20;;
41817;SDS011;27493;51.730;5.294;2022-07-29T00:26:20;1.20;;;1.03;;
41817;SDS011;27493;51.730;5.294;2022-07-29T00:28:46;1.27;;;1.03;;
41817;SDS011;27493;51.730;5.294;2022-07-29T00:31:11;2.07;;;1.03;;
41817;SDS011;27493;51.730;5.294;2022-07-29T00:33:36;3.30;;;1.20;;
41817;SDS011;27493;51.730;5.294;2022-07-29T00:36:01;0.97;;;0.97;;
41817;SDS011;27493;51.730;5.294;2022-07-29T00:38:26;1.00;;;1.00;;
41817;SDS011;27493;51.730;5.294;2022-07-29T00:40:52;1.00;;;1.00;;
41817;SDS011;27493;51.730;5.294;2022-07-29T00:43:17;1.27;;;1.10;;
41817;SDS011;27493;51.730;5.294;2022-07-29T00:45:42;1.20;;;1.10;;
41817;SDS011;27493;51.730;5.294;2022-07-29T00:48:07;2.13;;;0.93;;
41817;SDS011;27493;51.730;5.294;2022-07-29T00:50:33;1.13;;;1.10;;
41817;SDS011;27493;51.730;5.294;2022-07-29T00:52:59;1.17;;;1.00;;
41817;SDS011;27493;51.730;5.294;2022-07-29T00:55:24;3.33;;;1.17;;
41817;SDS011;27493;51.730;5.294;2022-07-29T00:57:50;1.13;;;1.03;;
41817;SDS011;27493;51.730;5.294;2022-07-29T01:00:18;1.37;;;1.10;;
41817;SDS011;27493;51.730;5.294;2022-07-29T01:02:45;1.47;;;1.27;;
41817;SDS011;27493;51.730;5.294;2022-07-29T01:05:12;1.10;;;1.00;;
41817;SDS011;27493;51.730;5.294;2022-07-29T01:07:37;1.67;;;1.13;;
41817;SDS011;27493;51.730;5.294;2022-07-29T01:10:04;1.20;;;1.00;;
41817;SDS011;27493;51.730;5.294;2022-07-29T01:12:30;2.80;;;1.17;;
41817;SDS011;27493;51.730;5.294;2022-07-29T01:14:58;0.90;;;0.90;;
41817;SDS011;27493;51.730;5.294;2022-07-29T01:17:28;2.20;;;1.17;;
41817;SDS011;27493;51.730;5.294;2022-07-29T01:19:58;2.13;;;1.10;;
41817;SDS011;27493;51.730;5.294;2022-07-29T01:25:26;1.17;;;0.97;;
41817;SDS011;27493;51.730;5.294;2022-07-29T01:30:20;1.77;;;1.27;;
41817;SDS011;27493;51.730;5.294;2022-07-29T01:32:47;1.30;;;1.20;;
41817;SDS011;27493;51.730;5.294;2022-07-29T01:35:22;1.33;;;1.13;;
41817;SDS011;27493;51.730;5.294;2022-07-29T01:37:50;1.70;;;1.20;;
41817;SDS011;27493;51.730;5.294;2022-07-29T01:40:19;1.90;;;1.10;;
41817;SDS011;27493;51.730;5.294;2022-07-29T01:42:46;2.23;;;1.10;;
41817;SDS011;27493;51.730;5.294;2022-07-29T01:47:40;1.10;;;1.00;;
41817;SDS011;27493;51.730;5.294;2022-07-29T01:50:08;1.80;;;1.20;;
41817;SDS011;27493;51.730;5.294;2022-07-29T01:52:46;1.30;;;1.20;;
41817;SDS011;27493;51.730;5.294;2022-07-29T01:55:15;2.20;;;1.30;;
41817;SDS011;27493;51.730;5.294;2022-07-29T01:57:42;1.47;;;1.10;;
41817;SDS011;27493;51.730;5.294;2022-07-29T02:00:07;1.30;;;1.20;;
41817;SDS011;27493;51.730;5.294;2022-07-29T02:02:33;1.70;;;1.00;;
41817;SDS011;27493;51.730;5.294;2022-07-29T02:05:00;1.00;;;1.00;;
41817;SDS011;27493;51.730;5.294;2022-07-29T02:07:27;2.80;;;1.30;;
41817;SDS011;27493;51.730;5.294;2022-07-29T02:09:53;1.10;;;1.00;;
41817;SDS011;27493;51.730;5.294;2022-07-29T02:12:19;1.27;;;1.17;;
41817;SDS011;27493;51.730;5.294;2022-07-29T02:14:47;1.50;;;1.40;;
41817;SDS011;27493;51.730;5.294;2022-07-29T02:17:13;1.27;;;1.17;;
41817;SDS011;27493;51.730;5.294;2022-07-29T02:19:38;1.37;;;1.27;;
41817;SDS011;27493;51.730;5.294;2022-07-29T02:22:04;1.20;;;1.10;;
41817;SDS011;27493;51.730;5.294;2022-07-29T02:24:30;1.20;;;1.10;;
41817;SDS011;27493;51.730;5.294;2022-07-29T02:26:56;1.53;;;1.30;;
41817;SDS011;27493;51.730;5.294;2022-07-29T02:29:23;1.83;;;1.20;;
41817;SDS011;27493;51.730;5.294;2022-07-29T02:31:50;1.40;;;1.20;;
41817;SDS011;27493;51.730;5.294;2022-07-29T02:34:15;3.17;;;1.20;;
41817;SDS011;27493;51.730;5.294;2022-07-29T02:36:42;2.20;;;1.20;;
41817;SDS011;27493;51.730;5.294;2022-07-29T02:39:08;1.20;;;1.10;;
41817;SDS011;27493;51.730;5.294;2022-07-29T02:41:47;1.70;;;1.20;;
41817;SDS011;27493;51.730;5.294;2022-07-29T02:44:14;2.10;;;1.37;;
41817;SDS011;27493;51.730;5.294;2022-07-29T02:49:20;1.73;;;1.53;;
41817;SDS011;27493;51.730;5.294;2022-07-29T02:51:54;1.57;;;1.40;;
41817;SDS011;27493;51.730;5.294;2022-07-29T02:54:22;2.23;;;1.30;;
41817;SDS011;27493;51.730;5.294;2022-07-29T02:56:48;1.37;;;1.17;;
41817;SDS011;27493;51.730;5.294;2022-07-29T02:59:14;1.30;;;1.20;;
41817;SDS011;27493;51.730;5.294;2022-07-29T03:01:43;1.60;;;1.50;;
41817;SDS011;27493;51.730;5.294;2022-07-29T03:04:09;2.43;;;1.37;;
41817;SDS011;27493;51.730;5.294;2022-07-29T03:06:36;2.70;;;1.33;;
41817;SDS011;27493;51.730;5.294;2022-07-29T03:09:02;1.47;;;1.20;;
41817;SDS011;27493;51.730;5.294;2022-07-29T03:11:28;1.50;;;1.17;;
41817;SDS011;27493;51.730;5.294;2022-07-29T03:13:53;2.90;;;1.40;;
41817;SDS011;27493;51.730;5.294;2022-07-29T03:16:19;1.53;;;1.30;;
41817;SDS011;27493;51.730;5.294;2022-07-29T03:18:45;2.03;;;1.43;;
41817;SDS011;27493;51.730;5.294;2022-07-29T03:21:10;2.03;;;1.40;;
41817;SDS011;27493;51.730;5.294;2022-07-29T03:23:35;1.33;;;1.23;;
41817;SDS011;27493;51.730;5.294;2022-07-29T03:26:00;3.33;;;1.20;;
41817;SDS011;27493;51.730;5.294;2022-07-29T03:28:26;2.07;;;1.37;;
41817;SDS011;27493;51.730;5.294;2022-07-29T03:30:52;5.13;;;1.50;;
41817;SDS011;27493;51.730;5.294;2022-07-29T03:33:17;2.73;;;1.30;;
41817;SDS011;27493;51.730;5.294;2022-07-29T03:35:42;1.33;;;1.20;;
41817;SDS011;27493;51.730;5.294;2022-07-29T03:38:08;2.50;;;1.43;;
41817;SDS011;27493;51.730;5.294;2022-07-29T03:40:49;1.50;;;1.40;;
41817;SDS011;27493;51.730;5.294;2022-07-29T03:43:16;2.23;;;1.50;;
41817;SDS011;27493;51.730;5.294;2022-07-29T03:45:43;1.20;;;1.10;;
41817;SDS011;27493;51.730;5.294;2022-07-29T03:48:10;1.47;;;1.37;;
41817;SDS011;27493;51.730;5.294;2022-07-29T03:50:37;2.37;;;1.37;;
41817;SDS011;27493;51.730;5.294;2022-07-29T03:53:02;1.20;;;1.10;;
41817;SDS011;27493;51.730;5.294;2022-07-29T03:55:28;1.80;;;1.53;;
41817;SDS011;27493;51.730;5.294;2022-07-29T03:57:54;2.27;;;1.50;;
41817;SDS011;27493;51.730;5.294;2022-07-29T04:00:21;2.27;;;1.30;;
41817;SDS011;27493;51.730;5.294;2022-07-29T04:02:47;1.97;;;1.40;;
41817;SDS011;27493;51.730;5.294;2022-07-29T04:05:13;1.80;;;1.50;;
41817;SDS011;27493;51.730;5.294;2022-07-29T04:07:39;1.47;;;1.33;;
41817;SDS011;27493;51.730;5.294;2022-07-29T04:10:05;2.73;;;1.70;;
41817;SDS011;27493;51.730;5.294;2022-07-29T04:12:30;2.20;;;1.80;;
41817;SDS011;27493;51.730;5.294;2022-07-29T04:14:55;2.53;;;1.60;;
41817;SDS011;27493;51.730;5.294;2022-07-29T04:17:20;2.93;;;1.20;;
41817;SDS011;27493;51.730;5.294;2022-07-29T04:19:46;4.13;;;2.03;;
41817;SDS011;27493;51.730;5.294;2022-07-29T04:22:11;1.60;;;1.50;;
41817;SDS011;27493;51.730;5.294;2022-07-29T04:24:36;1.40;;;1.10;;
41817;SDS011;27493;51.730;5.294;2022-07-29T04:27:01;1.30;;;1.20;;
41817;SDS011;27493;51.730;5.294;2022-07-29T04:29:27;2.10;;;1.63;;
41817;SDS011;27493;51.730;5.294;2022-07-29T04:31:52;1.60;;;1.50;;
41817;SDS011;27493;51.730;5.294;2022-07-29T04:34:17;1.90;;;1.60;;
41817;SDS011;27493;51.730;5.294;2022-07-29T04:36:42;2.00;;;1.60;;
41817;SDS011;27493;51.730;5.294;2022-07-29T04:39:07;4.90;;;1.60;;
41817;SDS011;27493;51.730;5.294;2022-07-29T04:41:33;1.80;;;1.50;;
41817;SDS011;27493;51.730;5.294;2022-07-29T04:43:58;2.87;;;1.80;;
41817;SDS011;27493;51.730;5.294;2022-07-29T04:46:25;1.57;;;1.23;;
41817;SDS011;27493;51.730;5.294;2022-07-29T04:48:50;2.03;;;1.83;;
41817;SDS011;27493;51.730;5.294;2022-07-29T04:51:16;2.20;;;1.50;;
41817;SDS011;27493;51.730;5.294;2022-07-29T04:53:41;2.20;;;1.70;;
41817;SDS011;27493;51.730;5.294;2022-07-29T04:56:06;2.47;;;1.40;;
41817;SDS011;27493;51.730;5.294;2022-07-29T04:58:33;2.20;;;2.00;;
41817;SDS011;27493;51.730;5.294;2022-07-29T05:00:58;2.90;;;1.60;;
41817;SDS011;27493;51.730;5.294;2022-07-29T05:03:24;3.40;;;2.00;;
41817;SDS011;27493;51.730;5.294;2022-07-29T05:05:49;3.13;;;1.90;;
41817;SDS011;27493;51.730;5.294;2022-07-29T05:08:14;4.13;;;1.70;;
41817;SDS011;27493;51.730;5.294;2022-07-29T05:10:39;2.90;;;1.60;;
41817;SDS011;27493;51.730;5.294;2022-07-29T05:13:05;3.60;;;2.00;;
41817;SDS011;27493;51.730;5.294;2022-07-29T05:15:31;3.67;;;2.00;;
41817;SDS011;27493;51.730;5.294;2022-07-29T05:17:56;1.90;;;1.70;;
41817;SDS011;27493;51.730;5.294;2022-07-29T05:20:22;3.20;;;1.57;;
41817;SDS011;27493;51.730;5.294;2022-07-29T05:22:51;3.47;;;2.10;;
41817;SDS011;27493;51.730;5.294;2022-07-29T05:25:16;4.40;;;1.90;;
41817;SDS011;27493;51.730;5.294;2022-07-29T05:27:41;2.20;;;2.00;;
41817;SDS011;27493;51.730;5.294;2022-07-29T05:30:06;3.07;;;1.93;;
41817;SDS011;27493;51.730;5.294;2022-07-29T05:32:32;2.40;;;1.83;;
41817;SDS011;27493;51.730;5.294;2022-07-29T05:34:57;2.63;;;2.00;;
41817;SDS011;27493;51.730;5.294;2022-07-29T05:37:22;3.60;;;1.93;;
41817;SDS011;27493;51.730;5.294;2022-07-29T05:39:47;2.47;;;1.97;;
41817;SDS011;27493;51.730;5.294;2022-07-29T05:42:13;2.47;;;2.00;;
41817;SDS011;27493;51.730;5.294;2022-07-29T05:44:38;2.30;;;2.00;;
41817;SDS011;27493;51.730;5.294;2022-07-29T05:47:04;2.13;;;1.90;;
41817;SDS011;27493;51.730;5.294;2022-07-29T05:49:29;4.00;;;2.27;;
41817;SDS011;27493;51.730;5.294;2022-07-29T05:51:54;6.50;;;2.33;;
41817;SDS011;27493;51.730;5.294;2022-07-29T05:54:19;4.23;;;2.20;;
41817;SDS011;27493;51.730;5.294;2022-07-29T05:56:45;3.87;;;1.97;;
41817;SDS011;27493;51.730;5.294;2022-07-29T05:59:11;2.27;;;1.77;;
41817;SDS011;27493;51.730;5.294;2022-07-29T06:01:36;1.60;;;1.50;;
41817;SDS011;27493;51.730;5.294;2022-07-29T06:04:04;4.63;;;2.00;;
41817;SDS011;27493;51.730;5.294;2022-07-29T06:06:29;4.20;;;2.40;;
41817;SDS011;27493;51.730;5.294;2022-07-29T06:08:54;2.50;;;2.07;;
41817;SDS011;27493;51.730;5.294;2022-07-29T06:11:19;2.50;;;2.07;;
41817;SDS011;27493;51.730;5.294;2022-07-29T06:13:44;4.80;;;1.80;;
41817;SDS011;27493;51.730;5.294;2022-07-29T06:16:10;3.17;;;2.20;;
41817;SDS011;27493;51.730;5.294;2022-07-29T06:18:35;2.57;;;2.20;;
41817;SDS011;27493;51.730;5.294;2022-07-29T06:21:17;1.77;;;1.67;;
41817;SDS011;27493;51.730;5.294;2022-07-29T06:23:43;2.10;;;1.90;;
41817;SDS011;27493;51.730;5.294;2022-07-29T06:26:10;4.10;;;2.13;;
41817;SDS011;27493;51.730;5.294;2022-07-29T06:28:35;2.90;;;1.93;;
41817;SDS011;27493;51.730;5.294;2022-07-29T06:31:00;4.53;;;2.13;;
41817;SDS011;27493;51.730;5.294;2022-07-29T06:33:25;4.97;;;2.30;;
41817;SDS011;27493;51.730;5.294;2022-07-29T06:35:50;2.40;;;2.20;;
41817;SDS011;27493;51.730;5.294;2022-07-29T06:38:16;2.80;;;1.90;;
41817;SDS011;27493;51.730;5.294;2022-07-29T06:40:44;2.47;;;2.00;;
41817;SDS011;27493;51.730;5.294;2022-07-29T06:43:25;2.40;;;2.20;;
41817;SDS011;27493;51.730;5.294;2022-07-29T06:45:51;2.10;;;1.90;;
41817;SDS011;27493;51.730;5.294;2022-07-29T06:48:16;3.57;;;1.93;;
41817;SDS011;27493;51.730;5.294;2022-07-29T06:50:42;4.53;;;2.20;;
41817;SDS011;27493;51.730;5.294;2022-07-29T06:53:07;2.87;;;2.10;;
41817;SDS011;27493;51.730;5.294;2022-07-29T06:55:32;2.37;;;2.17;;
41817;SDS011;27493;51.730;5.294;2022-07-29T06:57:57;5.60;;;2.50;;
41817;SDS011;27493;51.730;5.294;2022-07-29T07:00:22;3.57;;;2.60;;
41817;SDS011;27493;51.730;5.294;2022-07-29T07:02:47;3.93;;;2.60;;
41817;SDS011;27493;51.730;5.294;2022-07-29T07:05:13;2.53;;;2.33;;
41817;SDS011;27493;51.730;5.294;2022-07-29T07:07:38;2.83;;;2.57;;
41817;SDS011;27493;51.730;5.294;2022-07-29T07:10:03;2.70;;;2.50;;
41817;SDS011;27493;51.730;5.294;2022-07-29T07:12:28;2.53;;;2.10;;
41817;SDS011;27493;51.730;5.294;2022-07-29T07:14:54;2.57;;;2.37;;
41817;SDS011;27493;51.730;5.294;2022-07-29T07:17:19;2.50;;;2.30;;
41817;SDS011;27493;51.730;5.294;2022-07-29T07:19:44;2.57;;;2.23;;
41817;SDS011;27493;51.730;5.294;2022-07-29T07:22:10;2.50;;;2.00;;
41817;SDS011;27493;51.730;5.294;2022-07-29T07:24:35;2.10;;;1.87;;
41817;SDS011;27493;51.730;5.294;2022-07-29T07:27:00;3.40;;;2.50;;
41817;SDS011;27493;51.730;5.294;2022-07-29T07:29:25;3.40;;;2.20;;
41817;SDS011;27493;51.730;5.294;2022-07-29T07:31:50;4.27;;;2.20;;
41817;SDS011;27493;51.730;5.294;2022-07-29T07:34:16;2.73;;;2.20;;
41817;SDS011;27493;51.730;5.294;2022-07-29T07:36:41;4.20;;;2.40;;
41817;SDS011;27493;51.730;5.294;2022-07-29T07:39:06;4.43;;;2.63;;
41817;SDS011;27493;51.730;5.294;2022-07-29T07:41:31;4.73;;;2.53;;
41817;SDS011;27493;51.730;5.294;2022-07-29T07:43:57;2.80;;;2.20;;
41817;SDS011;27493;51.730;5.294;2022-07-29T07:46:22;3.83;;;2.53;;
41817;SDS011;27493;51.730;5.294;2022-07-29T07:48:47;3.47;;;2.60;;
41817;SDS011;27493;51.730;5.294;2022-07-29T07:51:12;2.50;;;2.30;;
41817;SDS011;27493;51.730;5.294;2022-07-29T07:53:37;5.13;;;2.20;;
41817;SDS011;27493;51.730;5.294;2022-07-29T07:56:03;2.73;;;2.00;;
41817;SDS011;27493;51.730;5.294;2022-07-29T07:58:29;3.20;;;2.17;;
41817;SDS011;27493;51.730;5.294;2022-07-29T08:00:55;3.80;;;2.27;;
41817;SDS011;27493;51.730;5.294;2022-07-29T08:03:20;4.07;;;2.27;;
41817;SDS011;27493;51.730;5.294;2022-07-29T08:05:45;3.07;;;2.40;;
41817;SDS011;27493;51.730;5.294;2022-07-29T08:08:11;3.10;;;2.17;;
41817;SDS011;27493;51.730;5.294;2022-07-29T08:10:36;2.57;;;2.00;;
41817;SDS011;27493;51.730;5.294;2022-07-29T08:13:16;2.90;;;2.40;;
41817;SDS011;27493;51.730;5.294;2022-07-29T08:15:42;2.77;;;2.07;;
41817;SDS011;27493;51.730;5.294;2022-07-29T08:18:08;2.37;;;2.03;;
41817;SDS011;27493;51.730;5.294;2022-07-29T08:20:33;3.73;;;2.70;;
41817;SDS011;27493;51.730;5.294;2022-07-29T08:23:00;3.07;;;2.20;;
41817;SDS011;27493;51.730;5.294;2022-07-29T08:25:25;2.63;;;2.43;;
41817;SDS011;27493;51.730;5.294;2022-07-29T08:27:50;2.33;;;2.00;;
41817;SDS011;27493;51.730;5.294;2022-07-29T08:30:16;2.57;;;2.37;;
41817;SDS011;27493;51.730;5.294;2022-07-29T08:32:41;5.03;;;2.20;;
41817;SDS011;27493;51.730;5.294;2022-07-29T08:35:07;2.47;;;2.20;;
41817;SDS011;27493;51.730;5.294;2022-07-29T08:37:32;3.40;;;2.10;;
41817;SDS011;27493;51.730;5.294;2022-07-29T08:39:57;2.53;;;2.30;;
41817;SDS011;27493;51.730;5.294;2022-07-29T08:42:22;3.10;;;2.07;;
41817;SDS011;27493;51.730;5.294;2022-07-29T08:44:48;2.47;;;2.00;;
41817;SDS011;27493;51.730;5.294;2022-07-29T08:47:13;2.87;;;2.10;;
41817;SDS011;27493;51.730;5.294;2022-07-29T08:49:39;3.17;;;2.17;;
41817;SDS011;27493;51.730;5.294;2022-07-29T08:52:04;2.97;;;2.03;;
41817;SDS011;27493;51.730;5.294;2022-07-29T08:54:29;2.57;;;2.13;;
41817;SDS011;27493;51.730;5.294;2022-07-29T08:56:55;4.53;;;1.90;;
41817;SDS011;27493;51.730;5.294;2022-07-29T08:59:21;1.83;;;1.70;;
41817;SDS011;27493;51.730;5.294;2022-07-29T09:01:47;2.73;;;2.23;;
41817;SDS011;27493;51.730;5.294;2022-07-29T09:04:13;2.30;;;2.10;;
41817;SDS011;27493;51.730;5.294;2022-07-29T09:06:40;2.30;;;1.97;;
41817;SDS011;27493;51.730;5.294;2022-07-29T09:09:07;3.50;;;1.90;;
41817;SDS011;27493;51.730;5.294;2022-07-29T09:11:32;3.17;;;1.80;;
41817;SDS011;27493;51.730;5.294;2022-07-29T09:13:57;2.10;;;1.90;;
41817;SDS011;27493;51.730;5.294;2022-07-29T09:16:22;1.70;;;1.60;;
41817;SDS011;27493;51.730;5.294;2022-07-29T09:18:47;2.10;;;1.80;;
41817;SDS011;27493;51.730;5.294;2022-07-29T09:21:13;2.03;;;1.53;;
41817;SDS011;27493;51.730;5.294;2022-07-29T09:24:05;4.07;;;1.70;;
41817;SDS011;27493;51.730;5.294;2022-07-29T09:26:32;3.97;;;1.97;;
41817;SDS011;27493;51.730;5.294;2022-07-29T09:28:57;1.80;;;1.70;;
41817;SDS011;27493;51.730;5.294;2022-07-29T09:31:28;2.00;;;1.80;;
41817;SDS011;27493;51.730;5.294;2022-07-29T09:33:57;1.57;;;1.47;;
41817;SDS011;27493;51.730;5.294;2022-07-29T09:36:23;3.20;;;1.60;;
41817;SDS011;27493;51.730;5.294;2022-07-29T09:38:56;1.43;;;1.33;;
41817;SDS011;27493;51.730;5.294;2022-07-29T09:41:22;2.17;;;1.90;;
41817;SDS011;27493;51.730;5.294;2022-07-29T09:43:57;1.50;;;1.40;;
41817;SDS011;27493;51.730;5.294;2022-07-29T09:46:23;3.53;;;1.60;;
41817;SDS011;27493;51.730;5.294;2022-07-29T09:51:33;3.47;;;2.37;;
41817;SDS011;27493;51.730;5.294;2022-07-29T09:53:58;3.63;;;2.20;;
41817;SDS011;27493;51.730;5.294;2022-07-29T09:56:46;2.77;;;1.80;;
41817;SDS011;27493;51.730;5.294;2022-07-29T09:59:10;2.00;;;1.73;;
41817;SDS011;27493;51.730;5.294;2022-07-29T10:01:37;2.00;;;1.80;;
41817;SDS011;27493;51.730;5.294;2022-07-29T10:04:02;2.13;;;1.93;;
41817;SDS011;27493;51.730;5.294;2022-07-29T10:06:27;2.83;;;1.80;;
41817;SDS011;27493;51.730;5.294;2022-07-29T10:08:53;1.93;;;1.73;;
41817;SDS011;27493;51.730;5.294;2022-07-29T10:11:18;2.43;;;2.23;;
41817;SDS011;27493;51.730;5.294;2022-07-29T10:13:45;1.90;;;1.70;;
41817;SDS011;27493;51.730;5.294;2022-07-29T10:16:10;2.87;;;2.13;;
41817;SDS011;27493;51.730;5.294;2022-07-29T10:18:39;2.43;;;2.17;;
41817;SDS011;27493;51.730;5.294;2022-07-29T10:21:05;3.20;;;2.00;;
41817;SDS011;27493;51.730;5.294;2022-07-29T10:23:30;2.38;;;2.03;;
41817;SDS011;27493;51.730;5.294;2022-07-29T10:25:56;2.17;;;1.98;;
41817;SDS011;27493;51.730;5.294;2022-07-29T10:28:21;3.72;;;2.25;;
41817;SDS011;27493;51.730;5.294;2022-07-29T10:30:46;2.67;;;1.60;;
41817;SDS011;27493;51.730;5.294;2022-07-29T10:36:11;3.42;;;1.85;;
41817;SDS011;27493;51.730;5.294;2022-07-29T10:41:17;2.17;;;1.92;;
41817;SDS011;27493;51.730;5.294;2022-07-29T10:43:53;1.92;;;1.42;;
41817;SDS011;27493;51.730;5.294;2022-07-29T10:46:19;1.90;;;1.52;;
41817;SDS011;27493;51.730;5.294;2022-07-29T10:51:50;2.45;;;2.22;;
41817;SDS011;27493;51.730;5.294;2022-07-29T10:54:13;1.90;;;1.77;;
41817;SDS011;27493;51.730;5.294;2022-07-29T10:56:40;2.05;;;1.73;;
41817;SDS011;27493;51.730;5.294;2022-07-29T11:01:42;2.00;;;1.60;;
41817;SDS011;27493;51.730;5.294;2022-07-29T11:04:08;4.18;;;1.80;;
41817;SDS011;27493;51.730;5.294;2022-07-29T11:07:07;3.33;;;2.10;;
41817;SDS011;27493;51.730;5.294;2022-07-29T11:09:25;2.22;;;1.45;;
41817;SDS011;27493;51.730;5.294;2022-07-29T11:11:50;2.80;;;1.88;;
41817;SDS011;27493;51.730;5.294;2022-07-29T11:14:15;2.03;;;1.90;;
41817;SDS011;27493;51.730;5.294;2022-07-29T11:16:58;2.08;;;1.92;;
41817;SDS011;27493;51.730;5.294;2022-07-29T11:19:24;2.50;;;1.83;;
41817;SDS011;27493;51.730;5.294;2022-07-29T11:21:49;3.75;;;2.00;;
41817;SDS011;27493;51.730;5.294;2022-07-29T11:24:19;3.05;;;1.80;;
41817;SDS011;27493;51.730;5.294;2022-07-29T11:26:46;3.35;;;2.03;;
41817;SDS011;27493;51.730;5.294;2022-07-29T11:29:30;4.50;;;2.10;;
41817;SDS011;27493;51.730;5.294;2022-07-29T11:31:57;2.25;;;1.80;;
41817;SDS011;27493;51.730;5.294;2022-07-29T11:34:32;2.05;;;1.88;;
41817;SDS011;27493;51.730;5.294;2022-07-29T11:44:54;4.32;;;2.55;;
41817;SDS011;27493;51.730;5.294;2022-07-29T11:47:23;2.03;;;1.90;;
41817;SDS011;27493;51.730;5.294;2022-07-29T11:49:52;2.78;;;1.77;;
41817;SDS011;27493;51.730;5.294;2022-07-29T11:52:18;2.53;;;1.70;;
41817;SDS011;27493;51.730;5.294;2022-07-29T11:54:43;1.80;;;1.70;;
41817;SDS011;27493;51.730;5.294;2022-07-29T11:57:09;3.10;;;1.77;;
41817;SDS011;27493;51.730;5.294;2022-07-29T11:59:41;4.15;;;1.73;;
41817;SDS011;27493;51.730;5.294;2022-07-29T12:02:07;1.85;;;1.63;;
41817;SDS011;27493;51.730;5.294;2022-07-29T12:04:51;2.83;;;1.77;;
41817;SDS011;27493;51.730;5.294;2022-07-29T12:07:16;1.83;;;1.42;;
41817;SDS011;27493;51.730;5.294;2022-07-29T12:09:51;1.88;;;1.52;;
41817;SDS011;27493;51.730;5.294;2022-07-29T12:12:17;1.67;;;1.45;;
41817;SDS011;27493;51.730;5.294;2022-07-29T12:14:42;4.15;;;1.58;;
41817;SDS011;27493;51.730;5.294;2022-07-29T12:17:24;1.65;;;1.55;;
41817;SDS011;27493;51.730;5.294;2022-07-29T12:19:50;2.88;;;1.17;;
41817;SDS011;27493;51.730;5.294;2022-07-29T12:22:24;1.38;;;1.10;;
41817;SDS011;27493;51.730;5.294;2022-07-29T12:24:49;1.38;;;1.27;;
41817;SDS011;27493;51.730;5.294;2022-07-29T12:27:16;1.52;;;1.20;;
41817;SDS011;27493;51.730;5.294;2022-07-29T12:29:42;1.13;;;1.05;;
41817;SDS011;27493;51.730;5.294;2022-07-29T12:32:07;4.28;;;1.40;;
41817;SDS011;27493;51.730;5.294;2022-07-29T12:34:32;1.98;;;1.05;;
41817;SDS011;27493;51.730;5.294;2022-07-29T12:36:57;1.35;;;1.25;;
41817;SDS011;27493;51.730;5.294;2022-07-29T12:39:23;1.40;;;1.30;;
41817;SDS011;27493;51.730;5.294;2022-07-29T12:41:51;1.88;;;1.40;;
41817;SDS011;27493;51.730;5.294;2022-07-29T12:44:16;3.78;;;1.63;;
41817;SDS011;27493;51.730;5.294;2022-07-29T12:46:41;1.55;;;1.45;;
41817;SDS011;27493;51.730;5.294;2022-07-29T12:49:07;1.40;;;1.30;;
41817;SDS011;27493;51.730;5.294;2022-07-29T12:51:33;2.03;;;1.60;;
41817;SDS011;27493;51.730;5.294;2022-07-29T12:54:11;1.75;;;1.20;;
41817;SDS011;27493;51.730;5.294;2022-07-29T12:56:38;1.80;;;1.55;;
41817;SDS011;27493;51.730;5.294;2022-07-29T12:59:20;1.40;;;1.30;;
41817;SDS011;27493;51.730;5.294;2022-07-29T13:01:45;1.50;;;1.40;;
41817;SDS011;27493;51.730;5.294;2022-07-29T13:04:23;1.70;;;1.60;;
41817;SDS011;27493;51.730;5.294;2022-07-29T13:06:48;1.95;;;1.50;;
41817;SDS011;27493;51.730;5.294;2022-07-29T13:09:22;1.73;;;1.58;;
41817;SDS011;27493;51.730;5.294;2022-07-29T13:14:14;2.28;;;1.50;;
41817;SDS011;27493;51.730;5.294;2022-07-29T13:21:59;3.03;;;1.40;;
41817;SDS011;27493;51.730;5.294;2022-07-29T13:24:24;1.48;;;1.35;;
41817;SDS011;27493;51.730;5.294;2022-07-29T13:26:50;2.35;;;1.17;;
41817;SDS011;27493;51.730;5.294;2022-07-29T13:29:16;2.88;;;1.02;;
41817;SDS011;27493;51.730;5.294;2022-07-29T13:31:41;1.20;;;1.20;;
41817;SDS011;27493;51.730;5.294;2022-07-29T13:34:07;1.65;;;1.30;;
41817;SDS011;27493;51.730;5.294;2022-07-29T13:36:32;1.20;;;1.10;;
41817;SDS011;27493;51.730;5.294;2022-07-29T13:38:57;1.85;;;1.30;;
41817;SDS011;27493;51.730;5.294;2022-07-29T13:41:22;2.78;;;1.60;;
41817;SDS011;27493;51.730;5.294;2022-07-29T13:43:48;0.90;;;0.90;;
41817;SDS011;27493;51.730;5.294;2022-07-29T13:46:13;1.38;;;1.27;;
41817;SDS011;27493;51.730;5.294;2022-07-29T13:48:38;1.20;;;1.10;;
41817;SDS011;27493;51.730;5.294;2022-07-29T13:51:03;3.03;;;1.60;;
41817;SDS011;27493;51.730;5.294;2022-07-29T13:53:29;1.35;;;1.25;;
41817;SDS011;27493;51.730;5.294;2022-07-29T13:55:54;1.48;;;1.38;;
41817;SDS011;27493;51.730;5.294;2022-07-29T13:58:20;1.63;;;1.38;;
41817;SDS011;27493;51.730;5.294;2022-07-29T14:00:45;2.60;;;1.60;;
41817;SDS011;27493;51.730;5.294;2022-07-29T14:03:11;1.70;;;1.60;;
41817;SDS011;27493;51.730;5.294;2022-07-29T14:05:36;1.60;;;1.30;;
41817;SDS011;27493;51.730;5.294;2022-07-29T14:08:01;1.63;;;1.48;;
41817;SDS011;27493;51.730;5.294;2022-07-29T14:10:27;1.60;;;1.50;;
41817;SDS011;27493;51.730;5.294;2022-07-29T14:12:52;1.50;;;1.40;;
41817;SDS011;27493;51.730;5.294;2022-07-29T14:15:17;2.42;;;1.50;;
41817;SDS011;27493;51.730;5.294;2022-07-29T14:17:42;1.90;;;1.80;;
41817;SDS011;27493;51.730;5.294;2022-07-29T14:20:07;2.40;;;1.60;;
41817;SDS011;27493;51.730;5.294;2022-07-29T14:22:33;2.40;;;1.52;;
41817;SDS011;27493;51.730;5.294;2022-07-29T14:24:58;2.25;;;1.27;;
41817;SDS011;27493;51.730;5.294;2022-07-29T14:27:23;1.60;;;1.50;;
41817;SDS011;27493;51.730;5.294;2022-07-29T14:29:48;1.40;;;1.30;;
41817;SDS011;27493;51.730;5.294;2022-07-29T14:32:14;1.40;;;1.30;;
41817;SDS011;27493;51.730;5.294;2022-07-29T14:34:39;1.40;;;1.30;;
41817;SDS011;27493;51.730;5.294;2022-07-29T14:37:05;2.88;;;1.35;;
41817;SDS011;27493;51.730;5.294;2022-07-29T14:39:31;1.38;;;1.27;;
41817;SDS011;27493;51.730;5.294;2022-07-29T14:41:56;1.85;;;1.50;;
41817;SDS011;27493;51.730;5.294;2022-07-29T14:44:21;2.88;;;1.52;;
41817;SDS011;27493;51.730;5.294;2022-07-29T14:46:46;1.33;;;1.20;;
41817;SDS011;27493;51.730;5.294;2022-07-29T14:49:12;1.85;;;1.30;;
41817;SDS011;27493;51.730;5.294;2022-07-29T14:51:37;1.65;;;1.48;;
41817;SDS011;27493;51.730;5.294;2022-07-29T14:54:02;1.40;;;1.30;;
41817;SDS011;27493;51.730;5.294;2022-07-29T14:56:27;2.25;;;1.98;;
41817;SDS011;27493;51.730;5.294;2022-07-29T14:58:54;2.35;;;1.33;;
41817;SDS011;27493;51.730;5.294;2022-07-29T15:01:19;1.75;;;1.35;;
41817;SDS011;27493;51.730;5.294;2022-07-29T15:03:45;1.50;;;1.40;;
41817;SDS011;27493;51.730;5.294;2022-07-29T15:06:10;1.20;;;1.20;;
41817;SDS011;27493;51.730;5.294;2022-07-29T15:08:36;1.42;;;1.33;;
41817;SDS011;27493;51.730;5.294;2022-07-29T15:11:01;4.30;;;1.52;;
41817;SDS011;27493;51.730;5.294;2022-07-29T15:13:29;1.23;;;1.13;;
41817;SDS011;27493;51.730;5.294;2022-07-29T15:16:00;1.33;;;1.20;;
41817;SDS011;27493;51.730;5.294;2022-07-29T15:18:25;1.30;;;1.20;;
41817;SDS011;27493;51.730;5.294;2022-07-29T15:20:51;1.50;;;1.40;;
41817;SDS011;27493;51.730;5.294;2022-07-29T15:23:16;1.75;;;1.23;;
41817;SDS011;27493;51.730;5.294;2022-07-29T15:25:41;1.40;;;1.30;;